Happy Valentine's Day! 

Flight Track Log - Related Links

Times and Time Zones

All times are in EDT time to prevent confusion due to time zone crossing. See the NKS605 flight status page for this flight to view local times or setup timezone preferences in your user account.


Time Position Orientation Groundspeed Altitude Reporting Facility
EDT Latitude Longitude Course Direction KTS MPH feet Rate Location/Type
Thu 01:41:17 PM 42.2036 -83.3556 191° South 146 168 1,100  Level Cleveland Center
Thu 01:42:36 PM 42.1408 -83.3722 190° South 209 241 3,400 2,194 Climbing Cleveland Center
Thu 01:43:31 PM 42.0800 -83.3864 177° South 253 291 6,000 3,097 Climbing Cleveland Center
Thu 01:44:40 PM 41.9947 -83.3800 174° South 288 331 9,800 2,512 Climbing Cleveland Center
Thu 01:45:40 PM 41.9094 -83.3678 177° South 293 337 11,400 2,150 Climbing Cleveland Center
Thu 01:46:40 PM 41.8117 -83.3608 176° South 338 389 14,100 2,550 Climbing Cleveland Center
Thu 01:47:40 PM 41.7075 -83.3508 176° South 367 422 16,500 2,200 Climbing Cleveland Center
Thu 01:48:40 PM 41.6142 -83.3411 181° South 379 436 18,500 2,000 Climbing Cleveland Center
Thu 01:49:40 PM 41.5014 -83.3447 196° South 389 448 20,500 1,950 Climbing Cleveland Center
Thu 01:50:40 PM 41.3942 -83.3844 194° South 401 461 22,400 1,900 Climbing Cleveland Center
Thu 01:51:40 PM 41.2828 -83.4211 196° South 415 478 24,300 1,850 Climbing Cleveland Center
Thu 01:52:40 PM 41.1711 -83.4631 194° South 420 483 26,100 1,469 Climbing Cleveland Center
Thu 01:54:56 PM 40.9094 -83.5514 195° South 434 499 29,100 1,316 Climbing Indianapolis Center
Thu 01:55:56 PM 40.7886 -83.5928 196° South 434 499 30,400 1,450 Climbing Indianapolis Center
Thu 01:56:56 PM 40.6700 -83.6364 195° South 440 506 32,000 1,450 Climbing Indianapolis Center
Thu 01:57:56 PM 40.5511 -83.6772 194° South 440 506 33,300 1,150 Climbing Indianapolis Center
Thu 01:58:56 PM 40.4303 -83.7178 196° South 440 506 34,300 1,050 Climbing Indianapolis Center
Thu 01:59:56 PM 40.3133 -83.7611 193° South 440 506 35,400 1,000 Climbing Indianapolis Center
Thu 02:00:56 PM 40.1903 -83.7989 195° South 446 513 36,300 750 Climbing Indianapolis Center
Thu 02:01:56 PM 40.0714 -83.8419 194° South 446 513 36,900 350 Climbing Indianapolis Center
Thu 02:02:56 PM 39.9506 -83.8819 195° South 451 519 37,000  Climbing Indianapolis Center
Thu 02:03:56 PM 39.8294 -83.9247 194° South 456 525 36,900  Descending Indianapolis Center
Thu 02:04:56 PM 39.7106 -83.9619 194° South 449 517 37,000 50 Climbing Indianapolis Center
Thu 02:05:56 PM 39.5914 -84.0017 194° South 449 517 37,000  Level Indianapolis Center
Thu 02:06:56 PM 39.4706 -84.0411 194° South 449 517 37,000 -50 Level Indianapolis Center
Thu 02:07:56 PM 39.3431 -84.0833 194° South 444 511 36,900 -50 Descending Indianapolis Center
Thu 02:08:56 PM 39.2283 -84.1200 195° South 438 504 36,900  Level Indianapolis Center
Thu 02:09:56 PM 39.1114 -84.1592 195° South 431 496 36,900  Level Indianapolis Center
Thu 02:10:56 PM 38.9964 -84.1983 194° South 437 503 36,900  Level Indianapolis Center
Thu 02:11:56 PM 38.8772 -84.2372 194° South 437 503 36,900  Level Indianapolis Center
Thu 02:12:56 PM 38.7625 -84.2733 190° South 437 503 36,900 50 Level Indianapolis Center
Thu 02:13:56 PM 38.6622 -84.2964 180° South 437 503 37,000 50 Climbing Indianapolis Center
Thu 02:14:56 PM 38.5142 -84.2975 173° South 437 503 37,000  Level Indianapolis Center
Thu 02:15:56 PM 38.3911 -84.2778 173° South 452 520 37,000  Level Indianapolis Center
Thu 02:16:56 PM 38.2661 -84.2581 171° South 452 520 37,000  Level Indianapolis Center
Thu 02:18:04 PM 38.1199 -84.2279 173° South 458 527 37,000  Level FlightAware ADS-B
Thu 02:18:35 PM 38.0512 -84.2172 179° South 460 529 37,000  Level FlightAware ADS-B
Thu 02:18:56 PM 38.0139 -84.2161 173° South 460 529 37,000  Level Indianapolis Center
Thu 02:19:56 PM 37.8847 -84.1964 171° South 460 529 37,000  Level Indianapolis Center
Thu 02:20:58 PM 37.7480 -84.1702 173° South 459 528 37,000  Level FlightAware ADS-B
Thu 02:22:02 PM 37.6143 -84.1502 173° South 459 528 37,000  Level FlightAware ADS-B
Thu 02:22:34 PM 37.5479 -84.1399 173° South 454 522 37,000  Level FlightAware ADS-B
Thu 02:23:11 PM 37.4705 -84.1280 173° South 453 521 37,000  Level FlightAware ADS-B
Thu 02:23:41 PM 37.4077 -84.1185 173° South 453 521 37,000  Level FlightAware ADS-B
Thu 02:24:11 PM 37.3452 -84.1090 173° South 454 522 37,000 -95 Level FlightAware ADS-B
Thu 02:24:44 PM 37.2758 -84.0985 173° South 456 525 36,900  Descending FlightAware ADS-B
Thu 02:25:17 PM 37.2068 -84.0882 173° South 458 527 37,000 94 Climbing FlightAware ADS-B
Thu 02:25:48 PM 37.1414 -84.0783 173° South 460 529 37,000  Level FlightAware ADS-B
Thu 02:26:44 PM 37.0236 -84.0605 173° South 462 532 37,000  Level FlightAware ADS-B
Thu 02:27:14 PM 36.9588 -84.0507 173° South 466 536 37,000  Level FlightAware ADS-B
Thu 02:27:45 PM 36.8911 -84.0401 173° South 466 536 37,000  Level FlightAware ADS-B
Thu 02:28:16 PM 36.8262 -84.0307 173° South 467 537 37,000  Level FlightAware ADS-B
Thu 02:28:46 PM 36.7612 -84.0214 173° South 467 537 37,000  Level FlightAware ADS-B
Thu 02:29:16 PM 36.6959 -84.0116 173° South 468 539 37,000  Level FlightAware ADS-B
Thu 02:29:47 PM 36.6309 -84.0019 173° South 468 539 37,000  Level FlightAware ADS-B
Thu 02:30:18 PM 36.5642 -83.9918 173° South 468 539 37,000  Level FlightAware ADS-B
Thu 02:30:50 PM 36.4933 -83.9811 173° South 469 540 37,000  Level FlightAware ADS-B
Thu 02:31:21 PM 36.4274 -83.9714 173° South 470 541 37,000  Level FlightAware ADS-B
Thu 02:31:52 PM 36.3608 -83.9618 173° South 470 541 37,000  Level FlightAware ADS-B
Thu 02:32:22 PM 36.2953 -83.9520 173° South 470 541 37,000  Level FlightAware ADS-B
Thu 02:32:53 PM 36.2288 -83.9421 173° South 471 542 37,000  Level FlightAware ADS-B
Thu 02:33:25 PM 36.1598 -83.9319 173° South 473 544 37,000  Level FlightAware ADS-B
Thu 02:33:55 PM 36.0932 -83.9220 173° South 474 545 37,000  Level FlightAware ADS-B
Thu 02:34:27 PM 36.0242 -83.9120 173° South 476 548 37,000  Level FlightAware ADS-B
Thu 02:34:58 PM 35.9571 -83.9021 172° South 476 548 37,000 128 Level FlightAware ADS-B
Thu 02:35:14 PM 35.9211 -83.8961 168° South 476 548 37,100 162 Climbing FlightAware ADS-B
Thu 02:35:35 PM 35.8748 -83.8843 165° South 477 549 37,100 -115 Level FlightAware ADS-B
Thu 02:36:06 PM 35.8104 -83.8627 165° South 476 548 37,000  Descending FlightAware ADS-B
Thu 02:36:36 PM 35.7459 -83.8415 165° South 473 544 37,100  Climbing FlightAware ADS-B
Thu 02:37:06 PM 35.6819 -83.8204 165° South 472 543 37,000 -98 Descending FlightAware ADS-B
Thu 02:37:37 PM 35.6176 -83.7987 165° South 470 541 37,000  Level FlightAware ADS-B
Thu 02:38:07 PM 35.5541 -83.7774 165° South 470 541 37,000  Level FlightAware ADS-B
Thu 02:38:41 PM 35.4827 -83.7539 165° South 469 540 37,000  Level FlightAware ADS-B
Thu 02:39:16 PM 35.4104 -83.7301 165° South 469 540 37,000  Level FlightAware ADS-B
Thu 02:39:46 PM 35.3473 -83.7094 165° South 469 540 37,000  Level FlightAware ADS-B
Thu 02:40:17 PM 35.2824 -83.6879 165° South 471 542 37,000  Level FlightAware ADS-B
Thu 02:40:47 PM 35.2183 -83.6667 165° South 470 541 37,000  Level FlightAware ADS-B
Thu 02:41:18 PM 35.1538 -83.6455 165° South 471 542 37,000  Level FlightAware ADS-B
Thu 02:41:50 PM 35.0862 -83.6234 165° South 471 542 37,000  Level FlightAware ADS-B
Thu 02:42:20 PM 35.0236 -83.6032 165° South 471 542 37,000  Level FlightAware ADS-B
Thu 02:42:51 PM 34.9583 -83.5818 165° South 469 540 37,000  Level FlightAware ADS-B
Thu 02:43:22 PM 34.8940 -83.5606 165° South 467 537 37,000 102 Level FlightAware ADS-B
Thu 02:43:50 PM 34.8351 -83.5411 165° South 464 534 37,100 -102 Climbing FlightAware ADS-B
Thu 02:44:21 PM 34.7720 -83.5206 165° South 460 529 36,900 -393 Descending FlightAware ADS-B
Thu 02:44:51 PM 34.7088 -83.5000 165° South 459 528 36,700 -492 Descending FlightAware ADS-B
Thu 02:45:22 PM 34.6470 -83.4798 165° South 459 528 36,400 -492 Descending FlightAware ADS-B
Thu 02:45:52 PM 34.5844 -83.4597 165° South 462 532 36,200 -400 Descending FlightAware ADS-B
Thu 02:46:22 PM 34.5220 -83.4396 165° South 462 532 36,000 -194 Descending FlightAware ADS-B
Thu 02:46:54 PM 34.4558 -83.4181 165° South 460 529 36,000  Level FlightAware ADS-B
Thu 02:47:25 PM 34.3935 -83.3981 165° South 457 526 36,000  Level FlightAware ADS-B
Thu 02:47:58 PM 34.3259 -83.3762 163° South 456 525 36,000  Level FlightAware ADS-B
Thu 02:48:16 PM 34.3081 -83.3697 166° South 461 531 36,000  Level Atlanta Center
Thu 02:49:16 PM 34.1867 -83.3331 165° South 450 518 36,000  Level Atlanta Center
Thu 02:50:17 PM 34.0675 -83.2939 165° South 450 518 36,000  Level Atlanta Center
Thu 02:51:41 PM 33.8797 -83.2336 165° South 442 509 36,000  Level FlightAware ADS-B
Thu 02:52:17 PM 33.8186 -83.2136 165° South 450 518 36,000  Level Atlanta Center
Thu 02:53:17 PM 33.6972 -83.1750 166° South 450 518 36,000  Level Atlanta Center
Thu 02:54:17 PM 33.5781 -83.1386 165° South 450 518 36,000  Level Atlanta Center
Thu 02:55:16 PM 33.4567 -83.1000 165° South 456 525 36,000  Level Atlanta Center
Thu 02:56:17 PM 33.3333 -83.0617 167° South 456 525 36,000  Level Atlanta Center
Thu 02:57:16 PM 33.2078 -83.0258 165° South 456 525 36,000  Level Atlanta Center
Thu 02:58:16 PM 33.0864 -82.9875 165° South 451 519 36,000  Level Atlanta Center
Thu 02:59:17 PM 32.9794 -82.9542 165° South 451 519 36,000  Level Atlanta Center
Thu 03:01:23 PM 32.7031 -82.8678 165° South 459 528 36,000  Level Jacksonville Center
Thu 03:02:22 PM 32.5819 -82.8283 166° South 459 528 36,000  Level Jacksonville Center
Thu 03:03:22 PM 32.4589 -82.7917 163° South 454 522 36,000  Level Jacksonville Center
Thu 03:04:22 PM 32.3378 -82.7475 167° South 449 517 36,000  Level Jacksonville Center
Thu 03:05:22 PM 32.2186 -82.7158 166° South 449 517 36,000  Level Jacksonville Center
Thu 03:06:22 PM 32.0975 -82.6792 165° South 449 517 36,000  Level Jacksonville Center
Thu 03:07:22 PM 31.9783 -82.6403 166° South 449 517 36,000  Level Jacksonville Center
Thu 03:08:22 PM 31.8550 -82.6039 166° South 449 517 36,000  Level Jacksonville Center
Thu 03:09:22 PM 31.7339 -82.5678 165° South 449 517 36,000  Level Jacksonville Center
Thu 03:10:22 PM 31.6147 -82.5292 167° South 449 517 36,000  Level Jacksonville Center
Thu 03:11:22 PM 31.4894 -82.4956 165° South 454 522 36,000  Level Jacksonville Center
Thu 03:12:22 PM 31.3703 -82.4594 168° South 449 517 36,000  Level Jacksonville Center
Thu 03:13:22 PM 31.2533 -82.4308 166° South 444 511 36,000 -50 Level Jacksonville Center
Thu 03:14:22 PM 31.1342 -82.3950 167° South 444 511 35,900 -50 Descending Jacksonville Center
Thu 03:15:22 PM 31.0150 -82.3642 168° South 444 511 35,900  Level Jacksonville Center
Thu 03:16:22 PM 30.8939 -82.3333 166° South 444 511 35,900 50 Level Jacksonville Center
Thu 03:17:22 PM 30.7725 -82.2978 165° South 444 511 36,000 50 Climbing Jacksonville Center
Thu 03:18:22 PM 30.6492 -82.2600 151° Southeast 449 517 36,000  Level Jacksonville Center
Thu 03:19:22 PM 30.5506 -82.1956 155° Southeast 454 522 36,000  Level Jacksonville Center
Thu 03:20:22 PM 30.4333 -82.1311 155° Southeast 454 522 36,000 -50 Level Jacksonville Center
Thu 03:21:23 PM 30.3181 -82.0697 152° Southeast 454 522 35,900 -50 Descending Jacksonville Center
Thu 03:22:23 PM 30.2050 -82.0008 154° Southeast 459 528 35,900 50 Level Jacksonville Center
Thu 03:23:23 PM 30.0939 -81.9394 165° South 459 528 36,000 50 Climbing Jacksonville Center
Thu 03:24:23 PM 29.9703 -81.9000 187° South 454 522 36,000  Level Jacksonville Center
Thu 03:25:23 PM 29.8494 -81.9181 185° South 431 496 36,000 -150 Level Jacksonville Center
Thu 03:26:23 PM 29.7306 -81.9311 185° South 431 496 35,700 -500 Descending Jacksonville Center
Thu 03:27:23 PM 29.6094 -81.9442 186° South 436 502 35,000 -400 Descending Jacksonville Center
Thu 03:28:23 PM 29.4906 -81.9597 185° South 441 507 34,900 -50 Descending Jacksonville Center
Thu 03:29:23 PM 29.3697 -81.9728 169° South 441 507 34,900  Level Jacksonville Center
Thu 03:30:23 PM 29.2483 -81.9453 170° South 441 507 34,900 50 Level Jacksonville Center
Thu 03:31:23 PM 29.1272 -81.9203 171° South 446 513 35,000 -675 Climbing Jacksonville Center
Thu 03:34:14 PM 28.7728 -81.8550 170° South 435 501 32,300 -1,584 Descending Miami Center
Thu 03:35:14 PM 28.6525 -81.8306 169° South 444 511 28,900 -2,650 Descending Miami Center
Thu 03:36:14 PM 28.5325 -81.8042 163° South 444 511 27,000 -1,000 Descending Miami Center
Thu 03:37:14 PM 28.4111 -81.7608 155° Southeast 444 511 26,900 -350 Descending Miami Center
Thu 03:38:14 PM 28.3044 -81.7044 158° South 458 527 26,300 -800 Descending Miami Center
Thu 03:39:14 PM 28.1872 -81.6500 170° South 458 527 25,300 -1,400 Descending Miami Center
Thu 03:40:14 PM 28.0714 -81.6261 189° South 453 521 23,500 -2,000 Descending Miami Center
Thu 03:41:14 PM 27.9558 -81.6472 192° South 427 491 21,300 -1,700 Descending Miami Center
Thu 03:42:14 PM 27.8464 -81.6731 173° South 416 479 20,100 -1,650 Descending Miami Center
Thu 03:43:14 PM 27.7344 -81.6567 170° South 376 433 18,000 -2,050 Descending Miami Center
Thu 03:44:14 PM 27.6347 -81.6361 170° South 371 427 16,000 -1,850 Descending Miami Center
Thu 03:45:14 PM 27.5353 -81.6156 172° South 371 427 14,300 -1,600 Descending Miami Center
Thu 03:46:14 PM 27.4419 -81.6000 173° South 359 413 12,800 -1,550 Descending Miami Center
Thu 03:47:14 PM 27.3483 -81.5867 174° South 346 398 11,200 -1,350 Descending Miami Center
Thu 03:48:14 PM 27.2633 -81.5761 176° South 334 384 10,100 -1,100 Descending Miami Center
Thu 03:49:14 PM 27.1842 -81.5706 193° South 322 371 9,000 -600 Descending Miami Center
Thu 03:50:14 PM 27.1061 -81.5908 197° South 295 339 8,900 -50 Descending Miami Center
Thu 03:51:14 PM 27.0344 -81.6158 198° South 283 326 8,900 50 Level Miami Center
Thu 03:52:14 PM 26.9647 -81.6411 195° South 283 326 9,000 -550 Climbing Miami Center
Thu 03:53:14 PM 26.8825 -81.6656 181° South 291 335 7,800 -1,550 Descending Miami Center
Thu 03:54:14 PM 26.8053 -81.6669 184° South 281 323 5,900 -1,700 Descending Miami Center
Thu 03:55:14 PM 26.7297 -81.6733 175° South 276 318 4,400 -1,500 Descending Miami Center
Thu 03:56:14 PM 26.6569 -81.6656 178° South 270 311 2,900 -1,200 Descending Miami Center
Thu 03:57:14 PM 26.5944 -81.6631 226° Southwest 253 291 2,000 -850 Descending Miami Center
Thu 03:58:14 PM 26.5639 -81.6989 226° Southwest 189 217 1,200 -800 Descending Miami Center

Login

Don't have an account? Register now (free) for customized features, flight alerts, and more!